Time;durP1;ratioP1;P1;durP2;ratioP2;P2;SDS_P1;SDS_P2;PMS_P1;PMS_P2;Temp;Humidity;BMP_temperature;BMP_pressure;BME280_temperature;BME280_humidity;BME280_pressure;Samples;Min_cycle;Max_cycle;Signal;HPM_P1;HPM_P2
2022/05/28 00:01:02;;;;;;;;;;;;;;;5.95;71.49;98556.94;1821764;77;21432;-63
2022/05/28 00:03:29;;;;;;;;;;;;;;;5.96;71.78;98557.31;1819195;77;20151;-62
2022/05/28 00:05:57;;;;;;;6.10;1.30;;;;;;;5.96;71.74;98557.31;1824530;77;20417;-63
2022/05/28 00:08:25;;;;;;;5.35;1.20;;;;;;;5.99;71.72;98557.19;1825485;77;21534;-62
2022/05/28 00:10:55;;;;;;;2.67;0.98;;;;;;;6.01;71.94;98547.57;1814359;76;21088;-62
2022/05/28 00:13:23;;;;;;;5.30;1.10;;;;;;;6.02;71.79;98542.80;1820076;78;21521;-62
2022/05/28 00:15:51;;;;;;;5.92;1.20;;;;;;;6.00;71.72;98540.72;1814635;77;21009;-62
2022/05/28 00:18:18;;;;;;;2.58;0.95;;;;;;;5.98;71.91;98538.65;1822757;76;21051;-62
2022/05/28 00:20:45;;;;;;;5.92;1.37;;;;;;;5.97;72.00;98540.03;1819727;77;20938;-63
2022/05/28 00:23:13;;;;;;;5.20;1.05;;;;;;;5.95;72.09;98534.91;1815277;77;21479;-62
2022/05/28 00:25:39;;;;;;;5.47;1.20;;;;;;;5.91;72.15;98532.06;1819287;77;21201;-63
2022/05/28 00:28:06;;;;;;;4.70;1.40;;;;;;;5.88;72.28;98532.22;1821710;77;20917;-63
2022/05/28 00:30:33;;;;;;;5.93;1.10;;;;;;;5.86;72.39;98528.84;1816081;76;20976;-62
2022/05/28 00:33:00;;;;;;;5.83;1.27;;;;;;;5.83;72.49;98531.59;1820791;77;21469;-62
2022/05/28 00:35:26;;;;;;;3.98;1.35;;;;;;;5.81;72.42;98523.04;1821748;77;20974;-62
2022/05/28 00:37:53;;;;;;;5.67;1.30;;;;;;;5.81;72.68;98523.04;1825008;77;21075;-62
2022/05/28 00:40:23;;;;;;;5.53;2.42;;;;;;;5.84;72.80;98522.89;1818856;77;21807;-62
2022/05/28 00:42:50;;;;;;;4.60;1.15;;;;;;;5.91;72.95;98520.84;1815776;77;20923;-62
2022/05/28 00:45:18;;;;;;;4.13;1.40;;;;;;;5.96;73.00;98519.73;1825650;76;21498;-62
2022/05/28 00:47:49;;;;;;;6.87;1.35;;;;;;;6.05;73.05;98519.32;1813604;77;21084;-62
2022/05/28 00:50:17;;;;;;;7.05;1.50;;;;;;;6.12;73.11;98514.67;1820074;77;21097;-63
2022/05/28 00:52:45;;;;;;;6.03;1.42;;;;;;;6.18;73.14;98509.19;1782723;78;20980;-62
2022/05/28 00:55:13;;;;;;;5.37;1.50;;;;;;;6.25;73.21;98511.05;1782389;79;21004;-62
2022/05/28 00:57:42;;;;;;;3.27;1.20;;;;;;;6.32;73.33;98512.40;1777706;80;21590;-62
2022/05/28 01:00:14;;;;;;;4.22;1.10;;;;;;;6.38;73.36;98510.80;1775706;78;21705;-62
2022/05/28 01:02:54;;;;;;;2.70;0.90;;;;;;;6.43;73.44;98498.45;1782619;79;22267;-62
2022/05/28 01:05:37;;;;;;;3.40;1.17;;;;;;;6.47;73.58;98499.98;1786383;78;20999;-62
2022/05/28 01:08:27;;;;;;;7.17;1.85;;;;;;;6.50;73.51;98492.05;1786015;78;21052;-63
2022/05/28 01:10:59;;;;;;;7.03;1.22;;;;;;;6.50;73.54;98484.27;1783529;78;21591;-62
2022/05/28 01:13:40;;;;;;;4.67;1.30;;;;;;;6.47;73.61;98489.62;1787066;79;20998;-62
2022/05/28 01:16:36;;;;;;;4.67;1.45;;;;;;;6.41;73.61;98487.34;1777272;79;22250;-61
2022/05/28 01:19:50;;;;;;;5.20;1.37;;;;;;;6.35;73.72;98487.62;1784515;78;20983;-62
2022/05/28 01:22:55;;;;;;;9.40;1.98;;;;;;;6.32;73.87;98482.59;1780218;78;20968;-62
2022/05/28 01:25:45;;;;;;;5.85;1.45;;;;;;;6.33;74.16;98486.88;1774896;79;20968;-61
2022/05/28 01:28:19;;;;;;;4.80;1.30;;;;;;;6.33;74.13;98481.69;1782328;78;21033;-63
2022/05/28 01:30:48;;;;;;;6.30;1.35;;;;;;;6.33;74.20;98484.28;1781315;79;22274;-62
2022/05/28 01:33:17;;;;;;;6.33;1.32;;;;;;;6.31;74.27;98483.52;1782665;79;20993;-61
2022/05/28 01:35:46;;;;;;;5.80;1.75;;;;;;;6.30;74.40;98485.70;1781076;79;20936;-62
2022/05/28 01:38:15;;;;;;;3.30;1.42;;;;;;;6.34;74.57;98493.73;1785910;79;21043;-62
2022/05/28 01:40:44;;;;;;;3.17;1.15;;;;;;;6.40;74.52;98483.05;1780439;79;20985;-62
2022/05/28 01:43:14;;;;;;;5.08;1.10;;;;;;;6.43;74.46;98487.24;1778787;79;21256;-62
2022/05/28 01:45:44;;;;;;;4.97;1.55;;;;;;;6.44;74.47;98483.72;1776220;78;21099;-61
2022/05/28 01:48:13;;;;;;;7.78;1.00;;;;;;;6.45;74.52;98470.70;1758138;79;20985;-61
2022/05/28 01:50:45;;;;;;;6.10;1.10;;;;;;;6.46;74.46;98471.06;1787463;79;20942;-62
2022/05/28 01:54:07;;;;;;;3.35;0.93;;;;;;;6.43;74.34;98477.70;1820225;77;21140;-62
2022/05/28 01:55:46;;;;;;;3.72;1.25;;;;;;;6.38;74.47;98477.09;1815404;77;21158;-61
2022/05/28 01:58:12;;;;;;;4.25;1.07;;;;;;;6.34;74.54;98480.77;1812368;77;21097;-62
2022/05/28 02:00:39;;;;;;;4.05;1.05;;;;;;;6.29;74.70;98476.27;1822755;77;20972;-61
2022/05/28 02:03:06;;;;;;;3.00;1.20;;;;;;;6.25;74.78;98474.29;1816147;76;21056;-61
2022/05/28 02:05:33;;;;;;;2.55;0.90;;;;;;;6.19;74.88;98454.30;1829108;76;20944;-61
2022/05/28 02:07:59;;;;;;;3.75;1.32;;;;;;;6.14;74.95;98460.19;1826744;76;21435;-61
2022/05/28 02:10:26;;;;;;;7.27;1.17;;;;;;;6.11;75.18;98449.97;1825167;77;20950;-62
2022/05/28 02:13:13;;;;;;;5.95;1.32;;;;;;;6.10;75.19;98448.28;1826063;75;20944;-61
2022/05/28 02:15:52;;;;;;;5.60;1.70;;;;;;;6.08;75.32;98447.08;1817993;76;21011;-61
2022/05/28 02:18:33;;;;;;;4.15;1.30;;;;;;;6.08;75.45;98447.51;1830624;76;21537;-62
2022/05/28 02:21:10;;;;;;;6.60;1.92;;;;;;;6.11;75.51;98449.97;1822023;76;21084;-62
2022/05/28 02:23:48;;;;;;;3.65;1.10;;;;;;;6.15;75.74;98454.91;1824268;77;20927;-61
2022/05/28 02:26:28;;;;;;;11.03;1.82;;;;;;;6.21;75.65;98458.95;1820576;77;20996;-61
2022/05/28 02:28:56;;;;;;;3.62;1.25;;;;;;;6.25;75.79;98478.64;1821511;77;20927;-62
2022/05/28 02:31:30;;;;;;;4.47;1.45;;;;;;;6.28;75.91;98470.70;1825915;76;21544;-62
2022/05/28 02:33:58;;;;;;;5.50;1.47;;;;;;;6.27;75.83;98476.78;1828930;76;21982;-62
2022/05/28 02:36:24;;;;;;;;;;;;;;;6.24;75.65;98461.39;1827528;77;21445;-62
2022/05/28 02:38:51;;;;;;;3.70;1.37;;;;;;;6.21;76.06;98456.36;1826692;77;20375;-62
2022/05/28 02:41:19;;;;;;;5.22;2.00;;;;;;;6.20;76.06;98462.47;1826668;77;20989;-62
2022/05/28 02:43:46;;;;;;;5.25;0.80;;;;;;;6.19;76.10;98464.23;1824226;77;21056;-62
2022/05/28 02:46:13;;;;;;;2.15;0.80;;;;;;;6.22;76.21;98459.35;1818716;77;21504;-62
2022/05/28 02:48:40;;;;;;;2.45;0.50;;;;;;;6.21;76.13;98455.06;1824206;77;20892;-62
2022/05/28 02:51:12;;;;;;;2.05;0.50;;;;;;;6.20;76.25;98480.61;1820369;76;21094;-62
2022/05/28 02:53:39;;;;;;;3.27;0.90;;;;;;;6.21;76.08;98469.31;1833435;76;20959;-62
2022/05/28 02:56:07;;;;;;;1.90;0.68;;;;;;;6.20;76.19;98467.19;1830765;76;21002;-63
2022/05/28 02:58:34;;;;;;;1.67;0.72;;;;;;;6.22;76.13;98450.28;1830537;77;21904;-62
2022/05/28 03:01:03;;;;;;;2.67;0.50;;;;;;;6.44;77.13;98463.84;1823014;77;20985;-62
2022/05/28 03:03:30;;;;;;;2.70;0.53;;;;;;;6.44;77.13;98463.84;1826133;77;21356;-62
2022/05/28 03:05:56;;;;;;;1.32;0.35;;;;;;;7.08;77.46;98456.22;1833554;76;21627;-62
2022/05/28 03:08:23;;;;;;;1.30;0.30;;;;;;;7.49;76.56;98436.27;1829304;76;21121;-62
2022/05/28 03:10:50;;;;;;;1.37;0.53;;;;;;;7.97;76.76;98436.58;1834310;76;21100;-63
2022/05/28 03:13:17;;;;;;;2.80;0.60;;;;;;;8.81;77.25;98442.99;1829026;76;21271;-62
2022/05/28 03:15:43;;;;;;;2.62;0.65;;;;;;;9.14;75.93;98438.33;1828902;77;21136;-62
2022/05/28 03:18:10;;;;;;;1.57;0.50;;;;;;;8.97;75.37;98441.14;1824368;77;20952;-63
2022/05/28 03:20:38;;;;;;;1.73;0.70;;;;;;;8.74;75.46;98432.95;1836034;76;21042;-62
2022/05/28 03:23:05;;;;;;;2.67;0.65;;;;;;;8.46;75.43;98426.44;1830503;76;21060;-62
2022/05/28 03:25:32;;;;;;;1.00;0.50;;;;;;;8.34;76.09;98425.81;1828403;77;21037;-63
2022/05/28 03:27:58;;;;;;;0.90;0.60;;;;;;;8.44;76.88;98429.58;1830018;76;21525;-62
2022/05/28 03:30:26;;;;;;;2.20;0.75;;;;;;;9.09;77.27;98419.55;1826146;76;20931;-63
2022/05/28 03:32:52;;;;;;;2.70;0.75;;;;;;;9.80;76.70;98422.89;1831659;77;21115;-62
2022/05/28 03:35:19;;;;;;;1.37;0.60;;;;;;;9.72;75.62;98422.55;1830848;76;21446;-62
2022/05/28 03:37:46;;;;;;;1.82;0.50;;;;;;;9.45;75.49;98418.17;1829123;77;21031;-62
2022/05/28 03:40:13;;;;;;;2.58;0.70;;;;;;;9.20;75.71;98418.88;1824436;76;21128;-62
2022/05/28 03:42:40;;;;;;;2.35;0.60;;;;;;;8.95;75.67;98419.56;1836620;76;21539;-62
2022/05/28 03:45:07;;;;;;;2.47;0.50;;;;;;;8.64;75.79;98424.02;1825073;77;21021;-62
2022/05/28 03:47:34;;;;;;;2.00;0.70;;;;;;;8.39;76.01;98423.81;1834572;76;21044;-62
2022/05/28 03:50:01;;;;;;;1.83;0.60;;;;;;;8.28;76.40;98425.23;1823505;76;20910;-62
2022/05/28 03:52:28;;;;;;;2.42;0.80;;;;;;;8.23;76.27;98420.80;1828616;77;21229;-62
2022/05/28 03:54:55;;;;;;;2.15;0.60;;;;;;;8.06;76.31;98419.61;1834460;77;21502;-63
2022/05/28 03:57:26;;;;;;;8.37;0.80;;;;;;;7.87;76.15;98411.19;1834017;77;21595;-62
2022/05/28 03:59:54;;;;;;;1.40;0.72;;;;;;;7.83;76.55;98419.16;1834675;76;21612;-62
2022/05/28 04:02:21;;;;;;;2.33;0.75;;;;;;;8.04;76.82;98422.78;1825021;77;21001;-64
2022/05/28 04:04:48;;;;;;;2.27;0.72;;;;;;;8.48;77.32;98418.05;1832295;77;21014;-62
2022/05/28 04:07:15;;;;;;;2.85;0.85;;;;;;;8.71;76.44;98414.93;1834090;76;21595;-62
2022/05/28 04:09:42;;;;;;;1.17;0.50;;;;;;;8.64;76.14;98420.59;1836354;77;21000;-62
2022/05/28 04:12:10;;;;;;;1.40;0.50;;;;;;;8.51;76.12;98417.87;1830564;77;22203;-61
2022/05/28 04:14:37;;;;;;;4.40;1.12;;;;;;;8.42;76.43;98421.02;1828162;76;20963;-62
2022/05/28 04:17:05;;;;;;;1.80;0.57;;;;;;;8.38;76.48;98406.51;1831945;77;21082;-62
2022/05/28 04:19:32;;;;;;;2.37;0.37;;;;;;;8.29;76.50;98403.52;1830797;76;21002;-61
2022/05/28 04:21:58;;;;;;;2.20;0.73;;;;;;;8.20;76.58;98401.44;1835243;77;21137;-61
2022/05/28 04:24:25;;;;;;;3.60;1.20;;;;;;;8.12;76.84;98391.95;1838064;77;22361;-62
2022/05/28 04:26:52;;;;;;;1.65;0.78;;;;;;;8.29;77.03;98402.69;1831489;76;20979;-61
2022/05/28 04:29:18;;;;;;;1.03;0.40;;;;;;;8.55;77.36;98398.56;1832660;76;21529;-61
2022/05/28 04:31:45;;;;;;;1.00;0.50;;;;;;;8.75;76.94;98394.75;1835188;77;20945;-62
2022/05/28 04:34:13;;;;;;;1.87;0.55;;;;;;;8.94;77.08;98397.07;1788430;78;20980;-62
2022/05/28 04:36:40;;;;;;;2.17;0.53;;;;;;;9.17;76.93;98398.24;1766682;80;21921;-61
2022/05/28 04:39:07;;;;;;;1.95;0.72;;;;;;;9.40;76.90;98402.00;1798814;79;21715;-63
2022/05/28 04:41:34;;;;;;;0.88;0.65;;;;;;;9.43;76.45;98400.50;1768041;79;21911;-61
2022/05/28 04:44:01;;;;;;;2.75;1.00;;;;;;;9.35;76.46;98401.45;1772750;79;21001;-61
2022/05/28 04:46:29;;;;;;;1.15;0.50;;;;;;;9.32;76.60;98405.55;1743471;80;21030;-61
2022/05/28 04:48:57;;;;;;;2.83;0.80;;;;;;;9.35;76.73;98410.13;1795449;79;21048;-61
2022/05/28 04:51:25;;;;;;;0.62;0.40;;;;;;;9.37;76.66;98406.09;1795745;79;21104;-62
2022/05/28 04:53:52;;;;;;;1.72;0.75;;;;;;;9.62;76.74;98409.28;1737980;80;21077;-61
2022/05/28 04:56:20;;;;;;;3.55;0.70;;;;;;;9.94;77.08;98408.52;1730201;81;21067;-62
2022/05/28 04:58:46;;;;;;;1.92;0.70;;;;;;;10.15;76.43;98410.16;1777385;79;20961;-62
2022/05/28 05:01:16;;;;;;;0.85;0.50;;;;;;;10.52;76.83;98402.50;1773298;80;21133;-62
2022/05/28 05:03:44;;;;;;;1.87;0.70;;;;;;;11.37;77.89;98403.53;1765057;79;21512;-62
2022/05/28 05:06:11;;;;;;;1.52;0.68;;;;;;;12.52;76.84;98391.61;1738245;81;21115;-63
2022/05/28 05:08:38;;;;;;;1.15;0.60;;;;;;;13.05;75.68;98390.55;1762087;79;21008;-62
2022/05/28 05:11:05;;;;;;;1.75;0.80;;;;;;;13.02;74.97;98398.63;1760984;80;21144;-63
2022/05/28 05:13:32;;;;;;;1.77;0.60;;;;;;;13.14;74.36;98398.16;1766251;79;21459;-63
2022/05/28 05:15:58;;;;;;;1.20;0.47;;;;;;;12.49;73.34;98397.91;1761966;79;21076;-63
2022/05/28 05:18:26;;;;;;;2.05;0.70;;;;;;;11.76;73.49;98396.36;1764632;79;21044;-63
2022/05/28 05:20:52;;;;;;;0.95;0.45;;;;;;;11.23;73.87;98404.98;1774249;79;21659;-64
2022/05/28 05:23:20;;;;;;;1.70;0.40;;;;;;;10.81;73.92;98404.88;1776688;79;20969;-64
2022/05/28 05:25:47;;;;;;;1.35;0.70;;;;;;;10.66;74.56;98409.39;1760787;79;21123;-63
2022/05/28 05:28:14;;;;;;;3.30;0.85;;;;;;;10.69;74.36;98411.78;1762552;79;21026;-64
2022/05/28 05:30:40;;;;;;;1.52;0.62;;;;;;;10.55;74.18;98404.06;1765324;79;21031;-64
2022/05/28 05:33:08;;;;;;;1.00;0.57;;;;;;;10.72;74.80;98408.96;1769676;79;21085;-65
2022/05/28 05:35:36;;;;;;;1.27;0.60;;;;;;;10.94;74.40;98408.31;1711358;82;21081;-64
2022/05/28 05:38:05;;;;;;;1.40;0.50;;;;;;;11.36;74.60;98408.84;1813613;77;21068;-65
2022/05/28 05:40:55;;;;;;;1.75;0.72;;;;;;;12.06;74.65;98406.83;1806687;77;20979;-64
2022/05/28 05:43:22;;;;;;;1.32;0.50;;;;;;;13.26;74.75;98401.63;1719919;81;21087;-62
2022/05/28 05:45:59;;;;;;;0.88;0.50;;;;;;;14.90;74.58;98409.95;1724412;81;21560;-62
2022/05/28 05:48:28;;;;;;;0.65;0.40;;;;;;;15.69;73.42;98406.59;1720019;81;21042;-64
2022/05/28 05:50:55;;;;;;;1.40;0.68;;;;;;;16.67;73.69;98402.89;1722337;81;21095;-64
2022/05/28 05:53:22;;;;;;;1.07;0.60;;;;;;;17.29;72.00;98392.66;1716872;81;21546;-66
2022/05/28 05:55:49;;;;;;;;;;;;;;;17.57;71.77;98393.47;1716037;81;20943;-65
2022/05/28 05:58:16;;;;;;;0.88;0.50;;;;;;;17.88;70.46;98406.34;1720016;82;20169;-64
2022/05/28 06:00:43;;;;;;;1.05;0.60;;;;;;;18.00;70.79;98395.05;1722830;81;21019;-64
2022/05/28 06:03:18;;;;;;;;;;;;;;;18.33;70.52;98405.39;1721458;82;21106;-65
2022/05/28 06:05:45;;;;;;;0.95;0.60;;;;;;;18.74;69.88;98403.06;1724426;81;20107;-64
2022/05/28 06:08:12;;;;;;;;;;;;;;;18.51;68.34;98406.20;1718523;81;21014;-64
2022/05/28 06:10:39;;;;;;;1.35;0.60;;;;;;;17.54;66.91;98412.23;1719057;82;20099;-64
2022/05/28 06:13:07;;;;;;;0.95;0.50;;;;;;;16.84;68.14;98420.28;1713019;81;22534;-64
2022/05/28 06:15:34;;;;;;;1.90;0.50;;;;;;;16.45;68.18;98414.59;1718822;81;21191;-63
2022/05/28 06:18:01;;;;;;;2.00;0.60;;;;;;;16.34;67.65;98418.20;1713867;82;21241;-63
2022/05/28 06:20:30;;;;;;;1.70;0.75;;;;;;;15.85;67.43;98414.78;1716045;82;20989;-63
2022/05/28 06:22:59;;;;;;;1.17;0.50;;;;;;;15.28;66.82;98407.09;1720865;82;21080;-63
2022/05/28 06:25:26;;;;;;;4.40;1.10;;;;;;;14.53;66.70;98410.42;1720581;81;21055;-63
2022/05/28 06:27:53;;;;;;;0.78;0.57;;;;;;;13.87;66.28;98413.74;1713501;82;21556;-63
2022/05/28 06:30:22;;;;;;;1.85;0.53;;;;;;;13.12;66.35;98417.09;1699737;81;21027;-63
2022/05/28 06:32:49;;;;;;;1.72;0.68;;;;;;;12.54;66.57;98421.93;1685942;83;21065;-63
2022/05/28 06:35:16;;;;;;;1.87;0.70;;;;;;;12.28;67.03;98423.91;1685098;83;20970;-62
2022/05/28 06:37:43;;;;;;;3.92;0.70;;;;;;;12.09;66.82;98423.61;1721414;82;20981;-63
2022/05/28 06:40:14;;;;;;;3.58;0.60;;;;;;;11.89;66.87;98427.70;1719247;81;21110;-62
2022/05/28 06:42:41;;;;;;;3.17;0.80;;;;;;;11.73;66.78;98430.55;1707778;82;20927;-63
2022/05/28 06:45:13;;;;;;;2.40;1.00;;;;;;;11.42;66.25;98424.91;1733379;81;20979;-62
2022/05/28 06:47:38;;;;;;;1.20;0.60;;;;;;;11.08;66.35;98426.95;1680514;83;21082;-63
2022/05/28 06:52:54;;;;;;;3.77;0.90;;;;;;;10.61;66.49;98433.19;1673421;83;21960;-62
2022/05/28 06:55:21;;;;;;;3.67;0.53;;;;;;;10.68;67.34;98437.53;1676809;83;21031;-62
2022/05/28 06:57:49;;;;;;;2.83;1.07;;;;;;;11.06;67.13;98432.73;1671874;84;20955;-62
2022/05/28 07:00:17;;;;;;;1.47;0.90;;;;;;;11.39;67.65;98422.52;1674865;84;21011;-62
2022/05/28 07:02:46;;;;;;;2.00;0.90;;;;;;;12.39;68.14;98417.05;1675385;83;21527;-62
2022/05/28 07:05:15;;;;;;;2.52;0.82;;;;;;;13.56;67.43;98417.53;1673083;84;22498;-62
2022/05/28 07:07:43;;;;;;;2.47;1.00;;;;;;;13.99;66.61;98414.52;1667846;84;21009;-62
2022/05/28 07:10:11;;;;;;;2.00;0.80;;;;;;;14.62;66.84;98406.22;1671636;84;20936;-62
2022/05/28 07:12:38;;;;;;;1.98;0.50;;;;;;;15.36;66.46;98401.16;1660415;85;21014;-63
2022/05/28 07:15:07;;;;;;;1.17;0.62;;;;;;;15.71;66.20;98408.61;1682110;82;21049;-63
2022/05/28 07:17:34;;;;;;;2.90;1.40;;;;;;;15.87;65.20;98402.29;1696527;83;21094;-62
2022/05/28 07:20:04;;;;;;;1.90;0.90;;;;;;;16.25;65.41;98403.26;1675729;84;21151;-62
2022/05/28 07:22:30;;;;;;;1.40;0.62;;;;;;;16.02;64.41;98413.25;1625897;86;21164;-62
2022/05/28 07:24:59;;;;;;;4.80;0.90;;;;;;;15.89;65.16;98405.63;1713906;81;21045;-62
2022/05/28 07:27:25;;;;;;;3.37;1.20;;;;;;;15.73;64.44;98406.65;1739286;81;21527;-63
2022/05/28 07:29:55;;;;;;;3.60;1.00;;;;;;;15.64;65.14;98400.87;1733800;81;21018;-64
2022/05/28 07:32:25;;;;;;;3.87;1.25;;;;;;;15.73;64.87;98415.86;1734556;81;21049;-63
2022/05/28 07:34:52;;;;;;;3.62;0.80;;;;;;;15.64;65.19;98407.45;1730691;81;21662;-63
2022/05/28 07:37:18;;;;;;;2.70;1.12;;;;;;;15.79;64.55;98407.41;1705118;81;21037;-62
2022/05/28 07:39:45;;;;;;;1.92;0.60;;;;;;;15.86;64.85;98400.64;1720830;81;20940;-62
2022/05/28 07:42:14;;;;;;;2.08;0.90;;;;;;;15.75;63.41;98400.77;1737232;80;21101;-62
2022/05/28 07:44:40;;;;;;;2.17;0.78;;;;;;;15.68;64.13;98404.91;1740750;80;20981;-63
2022/05/28 07:47:08;;;;;;;2.77;1.20;;;;;;;15.83;64.17;98404.86;1716046;81;21138;-63
2022/05/28 07:49:37;;;;;;;2.87;0.72;;;;;;;16.17;64.54;98394.40;1729928;82;21079;-63
2022/05/28 07:52:05;;;;;;;3.55;1.20;;;;;;;16.26;63.77;98402.27;1734129;81;20955;-63
2022/05/28 07:54:31;;;;;;;2.33;0.90;;;;;;;16.14;62.72;98403.41;1733799;81;21054;-65
2022/05/28 07:56:59;;;;;;;1.98;0.85;;;;;;;15.69;62.78;98398.69;1736101;81;21021;-63
2022/05/28 07:59:25;;;;;;;2.83;1.17;;;;;;;15.48;63.06;98392.67;1738577;81;21013;-62
2022/05/28 08:01:52;;;;;;;2.25;0.80;;;;;;;15.74;63.80;98391.23;1740772;81;21504;-62
2022/05/28 08:04:19;;;;;;;1.98;0.93;;;;;;;15.77;62.81;98389.62;1734231;81;26732;-62
2022/05/28 08:06:46;;;;;;;4.53;1.17;;;;;;;15.68;62.81;98387.80;1733406;81;21074;-62
2022/05/28 08:09:13;;;;;;;3.30;1.55;;;;;;;15.71;63.06;98386.70;1695235;83;21043;-63
2022/05/28 08:11:41;;;;;;;;;;;;;;;15.50;62.16;98396.00;1699371;83;21089;-64
2022/05/28 08:14:08;;;;;;;4.12;1.27;;;;;;;15.37;62.37;98398.38;1655848;85;20444;-62
2022/05/28 08:16:35;;;;;;;1.85;0.82;;;;;;;15.42;62.38;98396.19;1680200;83;20992;-63
2022/05/28 08:19:02;;;;;;;7.12;4.42;;;;;;;15.39;61.68;98398.27;1678687;83;21459;-63
2022/05/28 08:24:13;;;;;;;31.12;17.62;;;;;;;15.28;62.03;98387.37;1686395;83;21646;-63
2022/05/28 08:26:40;;;;;;;58.20;32.98;;;;;;;15.35;61.51;98393.77;1682387;83;20988;-62
2022/05/28 08:29:07;;;;;;;54.13;28.40;;;;;;;15.12;61.32;98403.64;1679449;83;21115;-62
2022/05/28 08:31:34;;;;;;;47.10;24.65;;;;;;;14.89;61.34;98403.01;1680875;83;22460;-62
2022/05/28 08:34:00;;;;;;;16.73;8.70;;;;;;;14.97;61.65;98403.18;1683873;83;21030;-62
2022/05/28 08:36:27;;;;;;;8.23;3.80;;;;;;;14.70;61.03;98404.23;1680236;83;21154;-66
2022/05/28 08:38:54;;;;;;;5.60;2.02;;;;;;;14.34;60.76;98402.42;1680512;83;21035;-65
2022/05/28 08:41:45;;;;;;;3.98;1.20;;;;;;;14.53;61.69;98409.11;1679051;83;21136;-64
2022/05/28 08:44:27;;;;;;;2.05;0.93;;;;;;;14.88;62.23;98406.61;1665995;83;22317;-62
2022/05/28 08:47:11;;;;;;;4.20;1.10;;;;;;;15.07;61.15;98399.75;1696885;83;20997;-62
2022/05/28 08:49:38;;;;;;;3.22;1.12;;;;;;;15.00;60.81;98410.80;1688903;83;21024;-62
2022/05/28 08:52:19;;;;;;;3.98;1.20;;;;;;;14.84;60.58;98410.45;1694763;83;21010;-62
2022/05/28 08:54:59;;;;;;;3.20;1.10;;;;;;;14.62;60.43;98410.61;1693045;83;22298;-61
2022/05/28 08:57:57;;;;;;;2.25;1.12;;;;;;;14.45;60.61;98404.98;1694305;83;21122;-60
2022/05/28 09:00:49;;;;;;;2.58;0.90;;;;;;;14.17;60.52;98403.83;1692890;83;21092;-62
2022/05/28 09:03:22;;;;;;;3.22;1.00;;;;;;;13.86;60.55;98413.37;1677506;83;22096;-61
2022/05/28 09:06:03;;;;;;;2.17;1.00;;;;;;;13.85;60.85;98407.78;1735558;81;21029;-63
2022/05/28 09:08:34;;;;;;;2.35;1.00;;;;;;;14.19;61.65;98407.63;1725646;81;20962;-62
2022/05/28 09:11:13;;;;;;;2.52;1.00;;;;;;;14.79;61.39;98412.66;1731437;81;21037;-61
2022/05/28 09:13:46;;;;;;;3.47;0.90;;;;;;;14.72;60.22;98411.50;1733091;81;21014;-61
2022/05/28 09:16:25;;;;;;;2.35;1.02;;;;;;;14.57;60.62;98412.82;1738798;81;21034;-61
2022/05/28 09:18:55;;;;;;;2.75;0.98;;;;;;;14.52;60.58;98421.08;1694117;83;21187;-61
2022/05/28 09:21:22;;;;;;;3.27;1.20;;;;;;;14.52;60.52;98419.28;1649819;85;21565;-61
2022/05/28 09:23:54;;;;;;;3.40;1.40;;;;;;;14.27;60.28;98426.20;1649088;84;22245;-61
2022/05/28 09:26:32;;;;;;;6.00;1.30;;;;;;;13.95;60.10;98423.14;1649541;85;20965;-61
2022/05/28 09:29:09;;;;;;;6.53;1.62;;;;;;;13.50;60.09;98428.97;1698928;82;21560;-61
2022/05/28 09:32:11;;;;;;;3.15;1.00;;;;;;;13.25;60.35;98436.60;1693299;83;21136;-61
2022/05/28 09:34:55;;;;;;;1.70;0.60;;;;;;;12.87;60.34;98438.64;1609655;88;21109;-60
2022/05/28 09:38:03;;;;;;;1.77;1.10;;;;;;;12.75;60.44;98429.95;1555893;89;22202;-61
2022/05/28 09:40:40;;;;;;;3.00;1.15;;;;;;;12.72;60.59;98429.36;1542942;90;57564;-61
2022/05/28 09:43:30;;;;;;;15.88;14.28;;;;;;;12.84;60.96;98432.81;1549639;91;21169;-61
2022/05/28 09:46:21;;;;;;;2.60;1.67;;;;;;;12.97;61.03;98439.61;1555671;89;21127;-62
2022/05/28 09:49:17;;;;;;;7.60;5.92;;;;;;;13.05;60.97;98439.02;1562551;89;21129;-62
2022/05/28 09:52:09;;;;;;;2.95;1.07;;;;;;;13.43;61.36;98444.38;1567527;89;22356;-62
2022/05/28 09:54:37;;;;;;;0.68;0.53;;;;;;;13.98;61.40;98428.12;1563844;89;21284;-61
2022/05/28 09:57:12;;;;;;;2.05;0.90;;;;;;;14.04;60.79;98425.00;1574366;87;21164;-62
2022/05/28 09:59:49;;;;;;;2.02;0.75;;;;;;;13.87;60.54;98436.05;1587481;87;21185;-62
2022/05/28 10:02:43;;;;;;;1.22;0.62;;;;;;;13.60;60.78;98433.84;1601485;86;21145;-64
2022/05/28 10:05:17;;;;;;;0.78;0.42;;;;;;;13.77;61.34;98435.94;1598816;88;21111;-62
2022/05/28 10:07:51;;;;;;;0.88;0.33;;;;;;;14.14;61.63;98437.36;1601190;86;21037;-63
2022/05/28 10:10:26;;;;;;;0.62;0.60;;;;;;;14.66;62.09;98433.05;1596184;86;21066;-62
2022/05/28 10:13:10;;;;;;;1.50;0.40;;;;;;;15.04;61.84;98421.05;1592602;86;21681;-62
2022/05/28 10:15:43;;;;;;;0.95;0.57;;;;;;;15.34;60.50;98424.95;1593059;87;21049;-64
2022/05/28 10:18:36;;;;;;;1.40;0.80;;;;;;;15.08;60.56;98422.45;1593475;86;21130;-63
2022/05/28 10:21:12;;;;;;;1.50;0.47;;;;;;;14.90;60.26;98434.91;1600994;87;21161;-62
2022/05/28 10:23:42;;;;;;;0.45;0.40;;;;;;;14.78;60.13;98432.83;1590335;87;21037;-61
2022/05/28 10:26:35;;;;;;;0.80;0.37;;;;;;;14.78;60.32;98437.25;1592304;88;21065;-61
2022/05/28 10:29:18;;;;;;;0.98;0.50;;;;;;;14.87;60.30;98437.80;1569692;89;21650;-62
2022/05/28 10:31:54;;;;;;;0.75;0.30;;;;;;;15.28;60.51;98434.70;1624783;86;21008;-62
2022/05/28 10:34:29;;;;;;;0.72;0.50;;;;;;;15.58;59.93;98440.88;1610132;86;21068;-62
2022/05/28 10:37:15;;;;;;;0.53;0.33;;;;;;;15.57;59.40;98440.52;1624128;86;21535;-62
2022/05/28 10:39:47;;;;;;;;;;;;;;;15.63;59.87;98434.73;1599400;87;21151;-61
2022/05/28 10:42:16;;;;;;;1.00;0.60;;;;;;;15.80;59.70;98435.41;1595725;85;35362;-61
2022/05/28 10:44:44;;;;;;;0.60;0.40;;;;;;;15.93;59.61;98427.72;1655448;84;21134;-61
2022/05/28 10:47:33;;;;;;;1.42;0.50;;;;;;;16.18;59.56;98433.73;1660505;83;20914;-61
2022/05/28 10:50:33;;;;;;;1.30;0.57;;;;;;;16.07;58.86;98427.30;1656243;85;21590;-62
2022/05/28 10:53:15;;;;;;;0.80;0.60;;;;;;;15.91;59.01;98429.65;1643774;84;21052;-61
2022/05/28 10:56:14;;;;;;;2.85;0.82;;;;;;;15.86;59.20;98441.92;1642249;85;21615;-62
2022/05/28 10:59:14;;;;;;;1.70;0.62;;;;;;;15.84;59.02;98426.25;1542149;90;22476;-62
2022/05/28 11:01:54;;;;;;;2.22;1.30;;;;;;;15.98;59.44;98434.72;1557020;90;21204;-61
2022/05/28 11:04:29;;;;;;;2.20;1.60;;;;;;;16.02;59.15;98438.73;1560956;90;21254;-62
2022/05/28 11:07:22;;;;;;;1.45;0.80;;;;;;;16.25;59.60;98437.49;1557741;90;21282;-61
2022/05/28 11:10:09;;;;;;;1.20;0.80;;;;;;;16.60;59.38;98433.41;1593449;88;21561;-62
2022/05/28 11:13:22;;;;;;;1.12;0.82;;;;;;;16.65;58.83;98431.19;1596540;88;21198;-61
2022/05/28 11:16:12;;;;;;;1.60;0.57;;;;;;;16.52;58.71;98435.92;1595434;88;21192;-62
2022/05/28 11:18:56;;;;;;;1.15;0.65;;;;;;;16.32;58.55;98435.95;1595502;88;22594;-61
2022/05/28 11:21:48;;;;;;;2.42;1.27;;;;;;;15.97;58.18;98438.34;1599153;88;21250;-61
2022/05/28 11:24:37;;;;;;;1.35;0.60;;;;;;;15.64;58.53;98445.59;1587296;88;21148;-61
2022/05/28 11:27:52;;;;;;;0.60;0.40;;;;;;;15.35;58.01;98438.47;1588790;88;21315;-61
2022/05/28 11:30:24;;;;;;;3.20;0.70;;;;;;;14.69;58.14;98445.92;1586739;88;21123;-61
2022/05/28 11:33:31;;;;;;;2.35;1.02;;;;;;;14.18;58.02;98450.59;1586581;88;21237;-64
2022/05/28 11:36:06;;;;;;;1.00;0.53;;;;;;;13.71;58.12;98451.35;1592940;87;21186;-63
2022/05/28 11:38:41;;;;;;;0.90;0.40;;;;;;;13.35;58.54;98463.80;1621696;85;21236;-62
2022/05/28 11:41:33;;;;;;;1.10;0.60;;;;;;;13.08;59.00;98467.61;1845413;75;22428;-62
2022/05/28 11:44:11;;;;;;;1.30;0.80;;;;;;;12.75;59.07;98461.37;1820586;77;21097;-62
2022/05/28 11:46:55;;;;;;;1.02;0.80;;;;;;;12.53;59.38;98473.12;1819267;77;21129;-60
2022/05/28 11:52:45;;;;;;;0.57;0.45;;;;;;;11.98;59.80;98474.09;1715634;81;21590;-63
2022/05/28 11:55:24;;;;;;;0.70;0.50;;;;;;;11.86;60.14;98475.83;1737189;81;21622;-63
2022/05/28 11:58:01;;;;;;;1.55;0.80;;;;;;;11.82;60.30;98471.75;1743047;81;21012;-62
2022/05/28 12:00:32;;;;;;;2.05;0.82;;;;;;;11.87;60.85;98475.34;1743978;81;21422;-61
2022/05/28 12:03:20;;;;;;;1.10;0.60;;;;;;;12.14;61.29;98469.89;1744296;79;21734;-61
2022/05/28 12:06:03;;;;;;;0.95;0.50;;;;;;;12.51;61.46;98468.47;1708223;81;21438;-61
2022/05/28 12:08:44;;;;;;;0.85;0.50;;;;;;;12.84;61.75;98466.88;1754988;80;21577;-62
2022/05/28 12:11:32;;;;;;;1.52;0.42;;;;;;;13.21;62.02;98466.98;1740081;81;22301;-62
2022/05/28 12:14:25;;;;;;;1.05;0.40;;;;;;;13.28;61.60;98462.63;1750255;81;21113;-62